createdAt,value
2019-03-31T00:01:36.118Z,98524.08
2019-03-31T00:04:06.102Z,98521.35
2019-03-31T00:06:35.953Z,98523.84
2019-03-31T00:09:07.816Z,98515.67
2019-03-31T00:11:37.667Z,98518.22
2019-03-31T00:14:07.574Z,98519.00
2019-03-31T00:16:37.530Z,98516.03
2019-03-31T00:19:07.673Z,98517.89
2019-03-31T00:21:37.486Z,98512.80
2019-03-31T00:24:07.326Z,98513.63
2019-03-31T00:26:37.150Z,98515.30
2019-03-31T00:29:07.106Z,98513.92
2019-03-31T00:31:37.018Z,98511.06
2019-03-31T00:34:07.559Z,98509.16
2019-03-31T00:36:37.384Z,98510.05
2019-03-31T00:39:08.740Z,98518.33
2019-03-31T00:41:38.557Z,98524.48
2019-03-31T00:44:08.385Z,98518.33
2019-03-31T00:46:38.248Z,98515.38
2019-03-31T00:49:08.057Z,98516.45
2019-03-31T00:51:54.738Z,98513.63
2019-03-31T00:54:27.629Z,98514.13
2019-03-31T00:56:56.136Z,98518.20
2019-03-31T00:59:25.972Z,98517.33
2019-03-31T01:01:58.884Z,98514.85
2019-03-31T01:04:30.816Z,98512.84
2019-03-31T01:07:00.882Z,98514.61
2019-03-31T01:09:33.543Z,98513.92
2019-03-31T01:12:04.740Z,98511.89
2019-03-31T01:14:34.683Z,98514.06
2019-03-31T01:17:06.783Z,98510.47
2019-03-31T01:19:38.195Z,98510.96
2019-03-31T01:22:08.124Z,98505.70
2019-03-31T01:24:38.055Z,98509.98
2019-03-31T01:27:09.651Z,98509.13
2019-03-31T01:29:39.606Z,98509.97
2019-03-31T01:32:09.444Z,98504.34
2019-03-31T01:34:39.282Z,98502.40
2019-03-31T01:37:10.335Z,98504.63
2019-03-31T01:39:40.300Z,98506.16
2019-03-31T01:42:10.346Z,98505.56
2019-03-31T01:44:40.172Z,98502.53
2019-03-31T01:47:10.325Z,98503.12
2019-03-31T01:49:40.163Z,98501.59
2019-03-31T01:52:10.041Z,98500.14
2019-03-31T01:54:39.890Z,98509.02
2019-03-31T01:57:11.647Z,98501.88
2019-03-31T01:59:41.474Z,98494.46
2019-03-31T02:02:15.805Z,98496.51
2019-03-31T02:04:45.755Z,98493.07
2019-03-31T02:07:15.699Z,98491.33
2019-03-31T02:09:45.642Z,98486.66
2019-03-31T02:12:15.673Z,98492.33
2019-03-31T02:14:46.848Z,98487.63
2019-03-31T02:17:17.219Z,98489.61
2019-03-31T02:19:47.119Z,98486.51
2019-03-31T02:22:17.101Z,98484.73
2019-03-31T02:24:46.901Z,98486.47
2019-03-31T02:27:16.759Z,98485.80
2019-03-31T02:29:46.643Z,98490.94
2019-03-31T02:32:24.018Z,98486.38
2019-03-31T02:34:48.174Z,98478.63
2019-03-31T02:37:18.026Z,98480.05
2019-03-31T02:39:47.890Z,98484.22
2019-03-31T02:42:17.753Z,98482.06
2019-03-31T02:44:48.750Z,98478.45
2019-03-31T02:47:18.653Z,98477.64
2019-03-31T02:49:48.604Z,98476.77
2019-03-31T02:52:18.488Z,98480.53
2019-03-31T02:54:51.491Z,98477.95
2019-03-31T02:57:23.494Z,98479.73
2019-03-31T02:59:53.932Z,98488.20
2019-03-31T03:02:40.698Z,98485.73
2019-03-31T03:04:57.738Z,98488.45
2019-03-31T03:07:29.493Z,98488.47
2019-03-31T03:10:01.171Z,98489.70
2019-03-31T03:12:34.987Z,98488.72
2019-03-31T03:15:05.430Z,98479.45
2019-03-31T03:17:35.256Z,98493.90
2019-03-31T03:20:06.174Z,98488.66
2019-03-31T03:22:36.044Z,98498.06
2019-03-31T03:25:06.423Z,98499.91
2019-03-31T03:27:36.367Z,98499.39
2019-03-31T03:30:06.782Z,98505.43
2019-03-31T03:32:37.802Z,98506.32
2019-03-31T03:35:08.944Z,98502.16
2019-03-31T03:37:38.779Z,98506.59
2019-03-31T03:40:08.706Z,98498.06
2019-03-31T03:42:38.558Z,98492.77
2019-03-31T03:45:09.412Z,98498.25
2019-03-31T03:47:39.247Z,98501.61
2019-03-31T03:50:09.233Z,98499.80
2019-03-31T03:52:39.145Z,98496.24
2019-03-31T03:55:09.014Z,98497.44
2019-03-31T03:57:38.846Z,98497.34
2019-03-31T04:00:08.784Z,98496.59
2019-03-31T04:02:38.749Z,98494.03
2019-03-31T04:05:08.600Z,98496.68
2019-03-31T04:07:38.540Z,98488.14
2019-03-31T04:10:30.504Z,98485.52
2019-03-31T04:13:00.388Z,98491.62
2019-03-31T04:15:30.388Z,98491.63
2019-03-31T04:18:00.322Z,98490.95
2019-03-31T04:20:30.354Z,98484.84
2019-03-31T04:23:00.144Z,98486.44
2019-03-31T04:25:30.098Z,98485.82
2019-03-31T04:28:00.113Z,98485.31
2019-03-31T04:30:29.964Z,98487.09
2019-03-31T04:32:59.812Z,98483.11
2019-03-31T04:35:29.746Z,98491.25
2019-03-31T04:37:59.623Z,98482.17
2019-03-31T04:40:29.447Z,98482.86
2019-03-31T04:42:59.274Z,98481.67
2019-03-31T04:45:29.076Z,98483.23
2019-03-31T04:47:58.915Z,98484.52
2019-03-31T04:50:28.877Z,98489.88
2019-03-31T04:52:58.687Z,98489.86
2019-03-31T04:55:28.525Z,98493.00
2019-03-31T04:58:01.103Z,98484.13
2019-03-31T05:00:31.138Z,98487.08
2019-03-31T05:03:00.979Z,98486.79
2019-03-31T05:05:30.842Z,98483.81
2019-03-31T05:08:00.679Z,98490.14
2019-03-31T05:10:30.518Z,98491.39
2019-03-31T05:13:00.386Z,98493.96
2019-03-31T05:15:30.233Z,98489.39
2019-03-31T05:18:00.082Z,98496.56
2019-03-31T05:20:29.968Z,98495.59
2019-03-31T05:22:59.782Z,98498.91
2019-03-31T05:25:29.622Z,98500.96
2019-03-31T05:28:00.038Z,98504.99
2019-03-31T05:30:29.958Z,98507.75
2019-03-31T05:32:59.776Z,98507.78
2019-03-31T05:35:29.615Z,98504.43
2019-03-31T05:37:59.541Z,98512.25
2019-03-31T05:40:30.797Z,98514.86
2019-03-31T05:43:00.840Z,98507.05
2019-03-31T05:45:30.783Z,98516.47
2019-03-31T05:48:00.640Z,98519.11
2019-03-31T05:50:30.511Z,98518.67
2019-03-31T05:53:00.358Z,98527.09
2019-03-31T05:55:30.183Z,98519.83
2019-03-31T05:58:01.514Z,98519.73
2019-03-31T06:00:34.845Z,98520.33
2019-03-31T06:03:04.964Z,98521.94
2019-03-31T06:05:34.776Z,98529.80
2019-03-31T06:08:05.105Z,98525.14
2019-03-31T06:10:34.983Z,98527.11
2019-03-31T06:13:04.829Z,98520.84
2019-03-31T06:15:34.699Z,98526.89
2019-03-31T06:18:04.816Z,98531.75
2019-03-31T06:20:34.785Z,98537.28
2019-03-31T06:23:06.053Z,98536.41
2019-03-31T06:25:37.026Z,98529.01
2019-03-31T06:28:07.024Z,98535.14
2019-03-31T06:30:37.880Z,98528.70
2019-03-31T06:33:07.864Z,98535.99
2019-03-31T06:35:39.387Z,98533.20
2019-03-31T06:38:11.041Z,98535.11
2019-03-31T06:40:42.388Z,98532.59
2019-03-31T06:43:12.266Z,98536.67
2019-03-31T06:45:42.113Z,98539.30
2019-03-31T06:48:11.997Z,98537.33
2019-03-31T06:50:42.356Z,98543.17
2019-03-31T06:53:12.236Z,98541.59
2019-03-31T06:55:42.080Z,98553.78
2019-03-31T06:58:11.920Z,98549.41
2019-03-31T07:00:41.959Z,98544.23
2019-03-31T07:03:11.824Z,98536.63
2019-03-31T07:05:41.965Z,98539.22
2019-03-31T07:08:11.902Z,98546.10
2019-03-31T07:10:42.187Z,98541.67
2019-03-31T07:13:12.431Z,98542.73
2019-03-31T07:15:43.937Z,98551.71
2019-03-31T07:18:16.058Z,98557.72
2019-03-31T07:20:46.501Z,98544.73
2019-03-31T07:23:16.470Z,98545.31
2019-03-31T07:25:46.433Z,98539.83
2019-03-31T07:28:16.390Z,98541.74
2019-03-31T07:30:49.041Z,98549.27
2019-03-31T07:33:19.112Z,98552.65
2019-03-31T07:35:49.112Z,98552.83
2019-03-31T07:38:21.612Z,98546.70
2019-03-31T07:40:51.868Z,98547.23
2019-03-31T07:43:21.796Z,98546.80
2019-03-31T07:45:51.680Z,98549.70
2019-03-31T07:48:21.544Z,98554.88
2019-03-31T07:50:52.872Z,98548.19
2019-03-31T07:53:23.398Z,98556.77
2019-03-31T07:55:53.249Z,98552.69
2019-03-31T07:58:23.189Z,98553.78
2019-03-31T08:00:53.032Z,98553.94
2019-03-31T08:03:23.045Z,98552.79
2019-03-31T08:05:52.891Z,98548.54
2019-03-31T08:08:22.754Z,98550.02
2019-03-31T08:10:54.540Z,98555.19
2019-03-31T08:13:24.383Z,98549.89
2019-03-31T08:15:54.351Z,98552.58
2019-03-31T08:18:24.442Z,98551.00
2019-03-31T08:20:54.317Z,98544.00
2019-03-31T08:23:35.610Z,98548.64
2019-03-31T08:26:06.076Z,98551.99
2019-03-31T08:28:35.944Z,98548.98
2019-03-31T08:31:05.893Z,98545.20
2019-03-31T08:33:35.807Z,98544.34
2019-03-31T08:36:05.793Z,98545.61
2019-03-31T08:38:35.662Z,98548.81
2019-03-31T08:41:05.729Z,98545.99
2019-03-31T08:43:35.641Z,98548.17
2019-03-31T08:46:05.483Z,98550.24
2019-03-31T08:48:35.408Z,98548.64
2019-03-31T08:51:05.310Z,98542.67
2019-03-31T08:53:35.258Z,98545.28
2019-03-31T08:56:08.482Z,98547.11
2019-03-31T08:58:38.511Z,98544.31
2019-03-31T09:01:13.219Z,98541.28
2019-03-31T09:03:43.144Z,98542.86
2019-03-31T09:06:13.123Z,98535.81
2019-03-31T09:08:43.019Z,98539.13
2019-03-31T09:11:13.032Z,98539.92
2019-03-31T09:13:42.971Z,98543.31
2019-03-31T09:16:12.845Z,98538.23
2019-03-31T09:18:42.739Z,98543.66
2019-03-31T09:21:12.614Z,98542.16
2019-03-31T09:23:42.468Z,98536.15
2019-03-31T09:26:12.340Z,98533.59
2019-03-31T09:28:42.622Z,98533.42
2019-03-31T09:31:13.035Z,98531.55
2019-03-31T09:33:43.216Z,98535.27
2019-03-31T09:36:16.452Z,98522.45
2019-03-31T09:38:44.722Z,98528.75
2019-03-31T09:41:14.582Z,98531.47
2019-03-31T09:43:44.467Z,98529.67
2019-03-31T09:46:18.009Z,98526.41
2019-03-31T09:48:47.992Z,98528.51
2019-03-31T09:51:17.860Z,98519.47
2019-03-31T09:53:47.808Z,98523.20
2019-03-31T09:56:17.661Z,98522.39
2019-03-31T09:58:47.501Z,98524.88
2019-03-31T10:01:17.362Z,98516.07
2019-03-31T10:03:47.245Z,98516.45
2019-03-31T10:06:29.513Z,98508.14
2019-03-31T10:08:48.742Z,98515.85
2019-03-31T10:11:18.606Z,98507.63
2019-03-31T10:13:48.455Z,98503.30
2019-03-31T10:16:18.273Z,98505.03
2019-03-31T10:18:48.181Z,98509.25
2019-03-31T10:21:18.136Z,98498.17
2019-03-31T10:23:48.082Z,98499.06
2019-03-31T10:26:31.109Z,98496.77
2019-03-31T10:28:49.683Z,98498.03
2019-03-31T10:31:19.511Z,98493.89
2019-03-31T10:33:49.388Z,98488.06
2019-03-31T10:36:19.311Z,98488.77
2019-03-31T10:38:49.153Z,98489.80
2019-03-31T10:41:19.027Z,98490.62
2019-03-31T10:43:48.975Z,98484.66
2019-03-31T10:46:18.804Z,98482.73
2019-03-31T10:48:48.832Z,98478.61
2019-03-31T10:51:18.739Z,98477.62
2019-03-31T10:53:48.735Z,98473.86
2019-03-31T10:56:18.765Z,98470.36
2019-03-31T10:58:48.918Z,98477.00
2019-03-31T11:01:18.758Z,98475.79
2019-03-31T11:03:50.292Z,98472.67
2019-03-31T11:06:20.155Z,98466.30
2019-03-31T11:08:56.438Z,98465.88
2019-03-31T11:11:26.286Z,98463.88
2019-03-31T11:13:56.133Z,98461.41
2019-03-31T11:16:26.403Z,98458.91
2019-03-31T11:18:56.247Z,98457.22
2019-03-31T11:21:31.320Z,98452.30
2019-03-31T11:24:01.339Z,98451.76
2019-03-31T11:26:31.217Z,98454.92
2019-03-31T11:29:01.235Z,98451.25
2019-03-31T11:31:31.093Z,98453.78
2019-03-31T11:34:01.368Z,98457.38
2019-03-31T11:36:31.211Z,98452.78
2019-03-31T11:39:01.093Z,98447.56
2019-03-31T11:41:30.941Z,98448.09
2019-03-31T11:44:01.038Z,98443.91
2019-03-31T11:46:30.971Z,98445.00
2019-03-31T11:49:00.823Z,98442.95
2019-03-31T11:51:30.695Z,98441.34
2019-03-31T11:54:00.579Z,98438.66
2019-03-31T11:56:30.470Z,98429.64
2019-03-31T11:59:00.348Z,98432.89
2019-03-31T12:01:30.299Z,98434.08
2019-03-31T12:04:00.276Z,98428.07
2019-03-31T12:06:30.127Z,98432.33
2019-03-31T12:09:01.556Z,98432.52
2019-03-31T12:11:31.500Z,98425.25
2019-03-31T12:14:01.362Z,98421.88
2019-03-31T12:16:31.940Z,98421.86
2019-03-31T12:19:02.875Z,98416.55
2019-03-31T12:21:34.843Z,98414.91
2019-03-31T12:24:05.031Z,98413.27
2019-03-31T12:26:36.482Z,98412.78
2019-03-31T12:29:07.422Z,98407.41
2019-03-31T12:31:40.101Z,98412.33
2019-03-31T12:34:11.427Z,98410.88
2019-03-31T12:36:41.990Z,98409.50
2019-03-31T12:39:12.931Z,98406.62
2019-03-31T12:41:43.682Z,98397.11
2019-03-31T12:44:13.656Z,98401.34
2019-03-31T12:46:43.541Z,98404.22
2019-03-31T12:49:13.473Z,98392.31
2019-03-31T12:51:43.322Z,98399.27
2019-03-31T12:54:13.200Z,98396.21
2019-03-31T12:56:43.108Z,98385.13
2019-03-31T12:59:12.960Z,98392.84
2019-03-31T13:01:42.844Z,98370.87
2019-03-31T13:04:12.775Z,98382.41
2019-03-31T13:06:42.618Z,98382.30
2019-03-31T13:09:12.489Z,98382.39
2019-03-31T13:11:42.706Z,98373.50
2019-03-31T13:14:12.537Z,98371.84
2019-03-31T13:16:42.435Z,98375.55
2019-03-31T13:19:13.877Z,98368.77
2019-03-31T13:21:45.360Z,98377.71
2019-03-31T13:24:15.248Z,98367.84
2019-03-31T13:26:46.217Z,98359.42
2019-03-31T13:29:16.398Z,98358.41
2019-03-31T13:31:47.501Z,98352.54
2019-03-31T13:34:17.480Z,98359.23
2019-03-31T13:36:48.413Z,98355.63
2019-03-31T13:39:18.308Z,98352.92
2019-03-31T13:41:48.147Z,98352.34
2019-03-31T13:44:17.984Z,98357.34
2019-03-31T13:46:47.835Z,98363.64
2019-03-31T13:49:17.699Z,98366.26
2019-03-31T13:51:47.932Z,98351.75
2019-03-31T13:54:17.762Z,98349.45
2019-03-31T13:56:49.328Z,98346.20
2019-03-31T13:59:19.964Z,98345.18
2019-03-31T14:01:49.827Z,98348.37
2019-03-31T14:04:19.747Z,98339.17
2019-03-31T14:06:49.589Z,98343.86
2019-03-31T14:09:19.444Z,98344.12
2019-03-31T14:11:50.492Z,98349.52
2019-03-31T14:14:22.254Z,98345.88
2019-03-31T14:16:52.079Z,98346.70
2019-03-31T14:19:23.736Z,98342.75
2019-03-31T14:21:53.621Z,98336.84
2019-03-31T14:24:26.779Z,98326.58
2019-03-31T14:26:55.115Z,98335.20
2019-03-31T14:29:24.999Z,98335.20
2019-03-31T14:31:54.915Z,98322.69
2019-03-31T14:34:24.920Z,98330.45
2019-03-31T14:36:58.483Z,98318.20
2019-03-31T14:39:28.291Z,98314.78
2019-03-31T14:41:58.294Z,98305.41
2019-03-31T14:44:28.259Z,98308.85
2019-03-31T14:46:58.120Z,98312.70
2019-03-31T14:49:28.008Z,98309.38
2019-03-31T14:52:01.103Z,98305.30
2019-03-31T14:54:29.716Z,98303.91
2019-03-31T14:56:59.661Z,98301.80
2019-03-31T14:59:29.522Z,98300.70
2019-03-31T15:01:59.387Z,98301.13
2019-03-31T15:04:29.404Z,98303.53
2019-03-31T15:06:59.290Z,98302.72
2019-03-31T15:09:29.657Z,98306.30
2019-03-31T15:11:59.807Z,98306.30
2019-03-31T15:14:29.721Z,98310.63
2019-03-31T15:16:59.571Z,98309.51
2019-03-31T15:19:29.438Z,98302.84
2019-03-31T15:21:59.311Z,98301.28
2019-03-31T15:24:29.262Z,98299.91
2019-03-31T15:27:01.333Z,98298.51
2019-03-31T15:29:31.147Z,98302.47
2019-03-31T15:32:02.460Z,98291.61
2019-03-31T15:34:32.312Z,98304.81
2019-03-31T15:37:02.179Z,98302.44
2019-03-31T15:39:32.059Z,98300.49
2019-03-31T15:42:01.886Z,98295.95
2019-03-31T15:44:31.851Z,98300.49
2019-03-31T15:47:01.795Z,98302.27
2019-03-31T15:49:31.622Z,98293.39
2019-03-31T15:52:01.471Z,98291.42
2019-03-31T15:54:31.286Z,98291.42
2019-03-31T15:57:01.252Z,98299.89
2019-03-31T15:59:31.089Z,98296.14
2019-03-31T16:02:01.076Z,98289.84
2019-03-31T16:04:33.204Z,98289.84
2019-03-31T16:07:03.038Z,98290.05
2019-03-31T16:09:32.368Z,98298.92
2019-03-31T16:12:01.687Z,98294.56
2019-03-31T16:14:30.976Z,98293.78
2019-03-31T16:17:00.317Z,98296.55
2019-03-31T16:19:29.650Z,98296.56
2019-03-31T16:21:59.105Z,98299.69
2019-03-31T16:24:36.984Z,98304.61
2019-03-31T16:27:06.323Z,98307.34
2019-03-31T16:29:35.825Z,98301.28
2019-03-31T16:32:05.747Z,98312.31
2019-03-31T16:34:35.481Z,98302.23
2019-03-31T16:37:04.825Z,98311.11
2019-03-31T16:39:38.139Z,98312.30
2019-03-31T16:42:08.125Z,98310.06
2019-03-31T16:44:37.874Z,98309.07
2019-03-31T16:47:07.562Z,98310.22
2019-03-31T16:49:37.245Z,98306.31
2019-03-31T16:52:06.834Z,98308.27
2019-03-31T16:54:37.908Z,98306.23
2019-03-31T16:57:07.409Z,98307.41
2019-03-31T16:59:38.671Z,98310.19
2019-03-31T17:02:08.552Z,98321.11
2019-03-31T17:04:38.306Z,98321.38
2019-03-31T17:07:08.028Z,98324.60
2019-03-31T17:09:50.686Z,98323.13
2019-03-31T17:12:08.977Z,98335.12
2019-03-31T17:14:38.676Z,98338.50
2019-03-31T17:17:08.099Z,98330.30
2019-03-31T17:19:39.011Z,98337.47
2019-03-31T17:22:08.363Z,98344.53
2019-03-31T17:24:38.236Z,98342.67
2019-03-31T17:27:07.559Z,98347.31
2019-03-31T17:29:38.798Z,98344.02
2019-03-31T17:32:09.328Z,98346.83
2019-03-31T17:34:38.745Z,98343.09
2019-03-31T17:37:10.161Z,98348.98
2019-03-31T17:39:39.794Z,98363.42
2019-03-31T17:42:10.450Z,98363.95
2019-03-31T17:44:39.990Z,98363.19
2019-03-31T17:47:09.533Z,98365.16
2019-03-31T17:49:39.212Z,98367.42
2019-03-31T17:52:09.084Z,98377.64
2019-03-31T17:54:38.999Z,98369.13
2019-03-31T17:57:08.518Z,98376.08
2019-03-31T17:59:38.244Z,98377.06
2019-03-31T18:02:07.819Z,98376.90
2019-03-31T18:04:38.781Z,98385.95
2019-03-31T18:07:08.134Z,98390.11
2019-03-31T18:09:38.081Z,98389.96
2019-03-31T18:12:07.439Z,98391.39
2019-03-31T18:14:36.894Z,98387.20
2019-03-31T18:17:06.264Z,98392.45
2019-03-31T18:19:36.187Z,98405.90
2019-03-31T18:22:16.290Z,98409.95
2019-03-31T18:24:37.198Z,98408.98
2019-03-31T18:27:06.826Z,98412.20
2019-03-31T18:29:36.539Z,98415.91
2019-03-31T18:32:05.975Z,98419.42
2019-03-31T18:34:35.584Z,98423.32
2019-03-31T18:37:05.688Z,98432.59
2019-03-31T18:39:35.045Z,98438.94
2019-03-31T18:42:04.675Z,98447.61
2019-03-31T18:44:35.170Z,98449.61
2019-03-31T18:47:05.146Z,98451.66
2019-03-31T18:49:34.647Z,98462.77
2019-03-31T18:52:04.269Z,98464.31
2019-03-31T18:54:53.176Z,98464.19
2019-03-31T18:57:53.468Z,98475.48
2019-03-31T19:00:40.502Z,98471.97
2019-03-31T19:03:20.024Z,98477.61
2019-03-31T19:06:03.678Z,98483.63
2019-03-31T19:08:40.110Z,98488.22
2019-03-31T19:11:32.725Z,98495.97
2019-03-31T19:14:33.458Z,98489.14
2019-03-31T19:17:20.493Z,98494.59
2019-03-31T19:20:18.413Z,98507.84
2019-03-31T19:23:05.878Z,98513.89
2019-03-31T19:25:52.846Z,98515.02
2019-03-31T19:28:44.354Z,98519.64
2019-03-31T19:31:35.734Z,98532.61
2019-03-31T19:34:29.495Z,98528.79
2019-03-31T19:37:30.033Z,98532.23
2019-03-31T19:40:20.736Z,98533.75
2019-03-31T19:43:18.585Z,98532.20
2019-03-31T19:46:08.077Z,98535.94
2019-03-31T19:49:02.693Z,98540.95
2019-03-31T19:51:54.496Z,98551.44
2019-03-31T19:54:45.840Z,98541.58
2019-03-31T19:57:38.014Z,98545.30
2019-03-31T20:00:39.179Z,98556.70
2019-03-31T20:03:31.074Z,98554.00
2019-03-31T20:06:18.660Z,98549.02
2019-03-31T20:09:08.912Z,98562.00
2019-03-31T20:12:03.426Z,98560.08
2019-03-31T20:14:45.441Z,98562.44
2019-03-31T20:17:42.798Z,98563.81
2019-03-31T20:20:43.513Z,98571.10
2019-03-31T20:23:27.992Z,98570.30
2019-03-31T20:26:19.055Z,98579.97
2019-03-31T20:29:10.555Z,98585.11
2019-03-31T20:31:52.449Z,98578.50
2019-03-31T20:34:43.531Z,98591.73
2019-03-31T20:37:23.820Z,98586.80
2019-03-31T20:40:22.742Z,98588.36
2019-03-31T20:43:11.024Z,98593.56
2019-03-31T20:45:40.629Z,98594.90
2019-03-31T20:48:10.840Z,98599.20
2019-03-31T20:50:40.498Z,98600.56
2019-03-31T20:53:10.304Z,98605.05
2019-03-31T20:55:39.882Z,98603.52
2019-03-31T20:58:09.344Z,98613.47
2019-03-31T21:00:38.992Z,98610.08
2019-03-31T21:03:08.906Z,98612.59
2019-03-31T21:08:15.732Z,98613.51
2019-03-31T21:10:45.033Z,98609.61
2019-03-31T21:13:14.843Z,98616.69
2019-03-31T21:15:44.347Z,98619.18
2019-03-31T21:18:13.898Z,98628.49
2019-03-31T21:20:43.985Z,98629.60
2019-03-31T21:23:13.526Z,98630.83
2019-03-31T21:25:46.131Z,98642.17
2019-03-31T21:28:15.970Z,98639.91
2019-03-31T21:30:45.757Z,98634.50
2019-03-31T21:33:15.807Z,98631.98
2019-03-31T21:35:48.548Z,98640.84
2019-03-31T21:38:18.428Z,98633.14
2019-03-31T21:40:47.733Z,98634.94
2019-03-31T21:43:17.056Z,98631.06
2019-03-31T21:45:47.461Z,98644.02
2019-03-31T21:48:16.729Z,98640.27
2019-03-31T21:50:46.019Z,98643.77
2019-03-31T21:53:16.445Z,98642.67
2019-03-31T21:55:47.090Z,98640.89
2019-03-31T21:58:17.815Z,98638.50
2019-03-31T22:00:59.527Z,98640.33
2019-03-31T22:03:29.938Z,98646.37
2019-03-31T22:05:59.585Z,98641.22
2019-03-31T22:08:28.974Z,98646.53
2019-03-31T22:10:58.898Z,98643.41
2019-03-31T22:13:29.270Z,98641.97
2019-03-31T22:16:00.267Z,98649.16
2019-03-31T22:18:32.922Z,98638.95
2019-03-31T22:21:03.761Z,98646.63
2019-03-31T22:23:34.712Z,98645.72
2019-03-31T22:26:04.064Z,98643.77
2019-03-31T22:28:33.545Z,98643.84
2019-03-31T22:31:04.663Z,98638.14
2019-03-31T22:33:34.493Z,98633.87
2019-03-31T22:36:22.349Z,98634.66
2019-03-31T22:38:53.111Z,98635.19
2019-03-31T22:41:22.784Z,98628.53
2019-03-31T22:43:52.080Z,98626.82
2019-03-31T22:46:21.398Z,98624.10
2019-03-31T22:48:50.683Z,98621.05
2019-03-31T22:51:20.031Z,98630.06
2019-03-31T22:53:50.048Z,98630.34
2019-03-31T22:56:19.338Z,98628.95
2019-03-31T22:58:48.622Z,98632.23
2019-03-31T23:01:17.973Z,98627.59
2019-03-31T23:03:47.264Z,98626.19
2019-03-31T23:06:16.548Z,98631.19
2019-03-31T23:08:45.967Z,98633.38
2019-03-31T23:11:15.268Z,98629.29
2019-03-31T23:13:45.039Z,98630.09
2019-03-31T23:16:15.555Z,98623.53
2019-03-31T23:18:44.816Z,98620.17
2019-03-31T23:21:14.148Z,98622.48
2019-03-31T23:23:43.406Z,98623.12
2019-03-31T23:26:12.744Z,98622.64
2019-03-31T23:28:47.230Z,98619.34
2019-03-31T23:31:18.763Z,98616.23
2019-03-31T23:33:51.371Z,98614.55
2019-03-31T23:36:21.967Z,98611.38
2019-03-31T23:38:52.713Z,98613.73
2019-03-31T23:41:23.281Z,98605.58
2019-03-31T23:43:53.698Z,98612.63
2019-03-31T23:46:24.964Z,98615.44
2019-03-31T23:48:55.410Z,98607.67
2019-03-31T23:51:25.015Z,98605.80
2019-03-31T23:53:55.876Z,98605.63
2019-03-31T23:56:27.367Z,98604.79
2019-03-31T23:58:56.956Z,98601.41
